sensor_id;sensor_type;location;lat;lon;timestamp;pressure;altitude;pressure_sealevel;temperature;humidity
66479;BME280;53294;47.912;13.526;2023-03-19T00:00:32;95863.47;;;8.28;51.85
66479;BME280;53294;47.912;13.526;2023-03-19T00:02:58;95858.63;;;8.11;52.57
66479;BME280;53294;47.912;13.526;2023-03-19T00:05:25;95867.81;;;7.81;54.41
66479;BME280;53294;47.912;13.526;2023-03-19T00:07:52;95860.75;;;7.90;53.43
66479;BME280;53294;47.912;13.526;2023-03-19T00:10:19;95863.13;;;7.67;54.64
66479;BME280;53294;47.912;13.526;2023-03-19T00:12:46;95855.47;;;7.85;53.60
66479;BME280;53294;47.912;13.526;2023-03-19T00:15:12;95858.00;;;7.95;52.79
66479;BME280;53294;47.912;13.526;2023-03-19T00:17:41;95856.13;;;7.71;54.07
66479;BME280;53294;47.912;13.526;2023-03-19T00:20:10;95866.91;;;7.66;54.55
66479;BME280;53294;47.912;13.526;2023-03-19T00:22:37;95857.97;;;7.76;53.52
66479;BME280;53294;47.912;13.526;2023-03-19T00:25:06;95856.72;;;7.68;54.38
66479;BME280;53294;47.912;13.526;2023-03-19T00:27:34;95847.63;;;7.69;53.66
66479;BME280;53294;47.912;13.526;2023-03-19T00:30:03;95853.53;;;7.66;53.80
66479;BME280;53294;47.912;13.526;2023-03-19T00:32:30;95853.75;;;7.70;53.59
66479;BME280;53294;47.912;13.526;2023-03-19T00:34:58;95848.63;;;7.73;53.24
66479;BME280;53294;47.912;13.526;2023-03-19T00:37:25;95853.28;;;7.63;53.97
66479;BME280;53294;47.912;13.526;2023-03-19T00:39:52;95858.97;;;7.56;54.95
66479;BME280;53294;47.912;13.526;2023-03-19T00:42:19;95851.59;;;7.48;54.94
66479;BME280;53294;47.912;13.526;2023-03-19T00:44:46;95855.44;;;7.36;55.59
66479;BME280;53294;47.912;13.526;2023-03-19T00:47:12;95850.53;;;7.44;54.88
66479;BME280;53294;47.912;13.526;2023-03-19T00:49:39;95857.38;;;7.55;54.30
66479;BME280;53294;47.912;13.526;2023-03-19T00:52:06;95860.22;;;7.40;54.99
66479;BME280;53294;47.912;13.526;2023-03-19T00:54:33;95864.66;;;7.49;54.29
66479;BME280;53294;47.912;13.526;2023-03-19T00:57:00;95864.88;;;7.53;54.27
66479;BME280;53294;47.912;13.526;2023-03-19T00:59:26;95867.63;;;7.48;54.51
66479;BME280;53294;47.912;13.526;2023-03-19T01:01:53;95865.78;;;7.43;54.79
66479;BME280;53294;47.912;13.526;2023-03-19T01:04:20;95860.88;;;7.26;55.91
66479;BME280;53294;47.912;13.526;2023-03-19T01:06:47;95860.78;;;7.36;54.97
66479;BME280;53294;47.912;13.526;2023-03-19T01:09:14;95862.28;;;7.48;54.01
66479;BME280;53294;47.912;13.526;2023-03-19T01:11:41;95867.41;;;7.44;54.36
66479;BME280;53294;47.912;13.526;2023-03-19T01:14:08;95875.69;;;7.13;56.33
66479;BME280;53294;47.912;13.526;2023-03-19T01:16:34;95870.19;;;6.99;56.91
66479;BME280;53294;47.912;13.526;2023-03-19T01:19:02;95866.34;;;7.11;56.20
66479;BME280;53294;47.912;13.526;2023-03-19T01:21:28;95870.09;;;7.10;56.16
66479;BME280;53294;47.912;13.526;2023-03-19T01:23:59;95865.19;;;7.22;55.17
66479;BME280;53294;47.912;13.526;2023-03-19T01:26:26;95859.81;;;7.27;54.71
66479;BME280;53294;47.912;13.526;2023-03-19T01:28:53;95871.06;;;7.24;54.57
66479;BME280;53294;47.912;13.526;2023-03-19T01:31:20;95867.41;;;7.10;55.36
66479;BME280;53294;47.912;13.526;2023-03-19T01:33:47;95871.25;;;6.98;56.01
66479;BME280;53294;47.912;13.526;2023-03-19T01:36:14;95873.31;;;7.07;55.29
66479;BME280;53294;47.912;13.526;2023-03-19T01:38:40;95866.84;;;7.18;54.37
66479;BME280;53294;47.912;13.526;2023-03-19T01:41:07;95875.16;;;7.11;54.74
66479;BME280;53294;47.912;13.526;2023-03-19T01:43:34;95867.41;;;7.10;54.65
66479;BME280;53294;47.912;13.526;2023-03-19T01:46:06;95867.97;;;7.07;54.76
66479;BME280;53294;47.912;13.526;2023-03-19T01:48:40;95859.41;;;7.10;54.71
66479;BME280;53294;47.912;13.526;2023-03-19T01:51:10;95865.97;;;6.88;55.95
66479;BME280;53294;47.912;13.526;2023-03-19T01:53:40;95859.19;;;6.72;57.47
66479;BME280;53294;47.912;13.526;2023-03-19T01:56:15;95863.84;;;6.90;55.68
66479;BME280;53294;47.912;13.526;2023-03-19T01:58:45;95859.78;;;6.98;54.75
66479;BME280;53294;47.912;13.526;2023-03-19T02:01:14;95863.19;;;7.04;54.38
66479;BME280;53294;47.912;13.526;2023-03-19T02:03:41;95866.41;;;7.00;54.21
66479;BME280;53294;47.912;13.526;2023-03-19T02:06:09;95861.63;;;7.03;53.97
66479;BME280;53294;47.912;13.526;2023-03-19T02:08:37;95860.56;;;6.98;54.05
66479;BME280;53294;47.912;13.526;2023-03-19T02:11:05;95868.63;;;6.93;54.24
66479;BME280;53294;47.912;13.526;2023-03-19T02:13:33;95868.63;;;6.93;54.24
66479;BME280;53294;47.912;13.526;2023-03-19T02:16:00;95866.81;;;6.89;54.45
66479;BME280;53294;47.912;13.526;2023-03-19T02:18:27;95865.47;;;6.86;54.64
66479;BME280;53294;47.912;13.526;2023-03-19T02:23:32;95866.13;;;6.73;55.41
66479;BME280;53294;47.912;13.526;2023-03-19T02:26:17;95869.91;;;6.67;55.92
66479;BME280;53294;47.912;13.526;2023-03-19T02:28:46;95872.00;;;6.70;55.30
66479;BME280;53294;47.912;13.526;2023-03-19T02:31:14;95873.41;;;6.62;55.45
66479;BME280;53294;47.912;13.526;2023-03-19T02:33:41;95873.63;;;6.65;55.15
66479;BME280;53294;47.912;13.526;2023-03-19T02:36:13;95871.94;;;6.40;56.20
66479;BME280;53294;47.912;13.526;2023-03-19T02:38:42;95871.63;;;6.47;55.51
66479;BME280;53294;47.912;13.526;2023-03-19T02:41:10;95874.78;;;6.49;55.54
66479;BME280;53294;47.912;13.526;2023-03-19T02:43:38;95876.44;;;6.40;55.90
66479;BME280;53294;47.912;13.526;2023-03-19T02:46:08;95873.25;;;6.38;56.25
66479;BME280;53294;47.912;13.526;2023-03-19T02:48:36;95879.69;;;6.32;56.32
66479;BME280;53294;47.912;13.526;2023-03-19T02:51:04;95880.75;;;6.36;56.06
66479;BME280;53294;47.912;13.526;2023-03-19T02:53:31;95886.38;;;6.34;55.94
66479;BME280;53294;47.912;13.526;2023-03-19T02:56:00;95882.34;;;6.37;55.83
66479;BME280;53294;47.912;13.526;2023-03-19T02:58:27;95887.94;;;6.40;55.32
66479;BME280;53294;47.912;13.526;2023-03-19T03:00:53;95888.19;;;6.44;55.20
66479;BME280;53294;47.912;13.526;2023-03-19T03:03:20;95895.16;;;6.35;55.67
66479;BME280;53294;47.912;13.526;2023-03-19T03:05:47;95896.22;;;6.39;55.51
66479;BME280;53294;47.912;13.526;2023-03-19T03:08:13;95895.16;;;6.35;55.65
66479;BME280;53294;47.912;13.526;2023-03-19T03:10:41;95898.88;;;6.34;55.72
66479;BME280;53294;47.912;13.526;2023-03-19T03:13:08;95905.00;;;6.39;55.24
66479;BME280;53294;47.912;13.526;2023-03-19T03:15:34;95912.22;;;6.34;55.33
66479;BME280;53294;47.912;13.526;2023-03-19T03:18:01;95909.03;;;6.32;55.41
66479;BME280;53294;47.912;13.526;2023-03-19T03:20:28;95906.41;;;6.21;55.63
66479;BME280;53294;47.912;13.526;2023-03-19T03:22:55;95904.25;;;6.28;55.13
66479;BME280;53294;47.912;13.526;2023-03-19T03:25:22;95901.59;;;6.28;55.02
66479;BME280;53294;47.912;13.526;2023-03-19T03:27:48;95902.94;;;6.26;54.91
66479;BME280;53294;47.912;13.526;2023-03-19T03:30:15;95917.09;;;6.21;55.02
66479;BME280;53294;47.912;13.526;2023-03-19T03:32:42;95912.34;;;6.08;55.57
66479;BME280;53294;47.912;13.526;2023-03-19T03:35:09;95918.81;;;5.81;56.85
66479;BME280;53294;47.912;13.526;2023-03-19T03:37:36;95915.59;;;5.89;56.76
66479;BME280;53294;47.912;13.526;2023-03-19T03:40:04;95912.41;;;5.87;56.67
66479;BME280;53294;47.912;13.526;2023-03-19T03:42:35;95914.53;;;5.85;56.90
66479;BME280;53294;47.912;13.526;2023-03-19T03:45:03;95919.84;;;5.90;56.40
66479;BME280;53294;47.912;13.526;2023-03-19T03:47:30;95919.84;;;5.90;56.28
66479;BME280;53294;47.912;13.526;2023-03-19T03:49:57;95915.09;;;5.72;56.94
66479;BME280;53294;47.912;13.526;2023-03-19T03:52:24;95913.00;;;5.43;58.67
66479;BME280;53294;47.912;13.526;2023-03-19T03:54:51;95925.50;;;5.63;57.27
66479;BME280;53294;47.912;13.526;2023-03-19T03:57:17;95922.00;;;5.73;57.01
66479;BME280;53294;47.912;13.526;2023-03-19T03:59:44;95924.69;;;5.68;57.33
66479;BME280;53294;47.912;13.526;2023-03-19T04:02:11;95925.28;;;5.29;59.67
66479;BME280;53294;47.912;13.526;2023-03-19T04:04:37;95936.72;;;5.34;59.71
66479;BME280;53294;47.912;13.526;2023-03-19T04:07:04;95939.66;;;5.33;59.76
66479;BME280;53294;47.912;13.526;2023-03-19T04:09:32;95942.59;;;5.26;60.23
66479;BME280;53294;47.912;13.526;2023-03-19T04:11:58;95942.59;;;5.42;59.29
66479;BME280;53294;47.912;13.526;2023-03-19T04:14:25;95936.44;;;5.51;58.72
66479;BME280;53294;47.912;13.526;2023-03-19T04:16:52;95931.63;;;5.64;58.05
66479;BME280;53294;47.912;13.526;2023-03-19T04:19:19;95937.78;;;5.44;58.67
66479;BME280;53294;47.912;13.526;2023-03-19T04:21:45;95930.56;;;5.54;58.11
66479;BME280;53294;47.912;13.526;2023-03-19T04:24:12;95931.09;;;5.62;57.79
66479;BME280;53294;47.912;13.526;2023-03-19T04:26:39;95935.91;;;5.49;58.82
66479;BME280;53294;47.912;13.526;2023-03-19T04:29:06;95931.66;;;5.53;58.84
66479;BME280;53294;47.912;13.526;2023-03-19T04:31:34;95938.28;;;5.56;58.52
66479;BME280;53294;47.912;13.526;2023-03-19T04:34:00;95940.72;;;5.32;59.42
66479;BME280;53294;47.912;13.526;2023-03-19T04:36:27;95938.56;;;5.49;58.30
66479;BME280;53294;47.912;13.526;2023-03-19T04:38:54;95943.63;;;5.40;58.95
66479;BME280;53294;47.912;13.526;2023-03-19T04:41:21;95936.19;;;5.48;58.41
66479;BME280;53294;47.912;13.526;2023-03-19T04:43:48;95942.84;;;5.50;58.16
66479;BME280;53294;47.912;13.526;2023-03-19T04:46:14;95943.38;;;5.63;57.35
66479;BME280;53294;47.912;13.526;2023-03-19T04:48:42;95938.81;;;5.63;57.78
66479;BME280;53294;47.912;13.526;2023-03-19T04:51:09;95936.41;;;5.67;57.36
66479;BME280;53294;47.912;13.526;2023-03-19T04:53:36;95933.75;;;5.67;57.20
66479;BME280;53294;47.912;13.526;2023-03-19T04:56:03;95939.63;;;5.64;57.42
66479;BME280;53294;47.912;13.526;2023-03-19T04:58:30;95943.38;;;5.63;57.42
66479;BME280;53294;47.912;13.526;2023-03-19T05:00:57;95951.34;;;5.68;57.37
66479;BME280;53294;47.912;13.526;2023-03-19T05:03:24;95958.81;;;5.66;57.05
66479;BME280;53294;47.912;13.526;2023-03-19T05:05:52;95960.94;;;5.64;57.24
66479;BME280;53294;47.912;13.526;2023-03-19T05:08:20;95961.50;;;5.50;58.27
66479;BME280;53294;47.912;13.526;2023-03-19T05:10:46;95961.47;;;5.45;58.02
66479;BME280;53294;47.912;13.526;2023-03-19T05:13:13;95971.34;;;5.45;58.01
66479;BME280;53294;47.912;13.526;2023-03-19T05:15:43;95972.69;;;5.42;58.77
66479;BME280;53294;47.912;13.526;2023-03-19T05:18:11;95967.06;;;5.44;58.40
66479;BME280;53294;47.912;13.526;2023-03-19T05:20:38;95961.50;;;5.50;58.17
66479;BME280;53294;47.912;13.526;2023-03-19T05:23:05;95974.00;;;5.60;57.74
66479;BME280;53294;47.912;13.526;2023-03-19T05:25:33;95973.22;;;5.60;57.14
66479;BME280;53294;47.912;13.526;2023-03-19T05:28:02;95973.47;;;5.58;57.74
66479;BME280;53294;47.912;13.526;2023-03-19T05:30:29;95980.69;;;5.63;57.46
66479;BME280;53294;47.912;13.526;2023-03-19T05:32:57;95984.94;;;5.33;59.88
66479;BME280;53294;47.912;13.526;2023-03-19T05:35:26;95981.47;;;5.43;58.23
66479;BME280;53294;47.912;13.526;2023-03-19T05:37:55;95979.88;;;5.47;57.71
66479;BME280;53294;47.912;13.526;2023-03-19T05:40:22;95978.56;;;5.44;57.89
66479;BME280;53294;47.912;13.526;2023-03-19T05:42:49;95985.47;;;5.25;59.30
66479;BME280;53294;47.912;13.526;2023-03-19T05:45:16;95992.38;;;5.36;58.83
66479;BME280;53294;47.912;13.526;2023-03-19T05:47:46;95991.31;;;5.01;61.19
66479;BME280;53294;47.912;13.526;2023-03-19T05:50:13;95993.72;;;5.13;60.59
66479;BME280;53294;47.912;13.526;2023-03-19T05:52:39;95996.66;;;5.32;59.17
66479;BME280;53294;47.912;13.526;2023-03-19T05:55:07;95994.53;;;5.44;59.35
66479;BME280;53294;47.912;13.526;2023-03-19T05:57:34;96005.16;;;5.18;60.70
66479;BME280;53294;47.912;13.526;2023-03-19T06:00:00;96019.03;;;5.36;59.82
66479;BME280;53294;47.912;13.526;2023-03-19T06:02:27;96013.72;;;5.46;59.90
66479;BME280;53294;47.912;13.526;2023-03-19T06:04:54;96018.50;;;5.39;60.08
66479;BME280;53294;47.912;13.526;2023-03-19T06:07:21;96028.38;;;5.49;59.66
66479;BME280;53294;47.912;13.526;2023-03-19T06:09:47;96029.72;;;5.56;59.80
66479;BME280;53294;47.912;13.526;2023-03-19T06:12:14;96034.50;;;5.60;60.14
66479;BME280;53294;47.912;13.526;2023-03-19T06:14:41;96033.44;;;5.55;60.54
66479;BME280;53294;47.912;13.526;2023-03-19T06:17:08;96032.91;;;5.58;60.28
66479;BME280;53294;47.912;13.526;2023-03-19T06:19:35;96033.97;;;5.63;60.40
66479;BME280;53294;47.912;13.526;2023-03-19T06:22:01;96035.28;;;5.81;59.91
66479;BME280;53294;47.912;13.526;2023-03-19T06:24:28;96034.50;;;5.90;59.81
66479;BME280;53294;47.912;13.526;2023-03-19T06:26:56;96030.75;;;6.02;59.53
66479;BME280;53294;47.912;13.526;2023-03-19T06:29:22;96032.34;;;6.13;59.59
66479;BME280;53294;47.912;13.526;2023-03-19T06:31:49;96031.25;;;6.19;60.11
66479;BME280;53294;47.912;13.526;2023-03-19T06:34:16;96036.28;;;6.36;59.21
66479;BME280;53294;47.912;13.526;2023-03-19T06:36:43;96038.91;;;6.52;59.26
66479;BME280;53294;47.912;13.526;2023-03-19T06:39:10;96045.03;;;6.52;59.92
66479;BME280;53294;47.912;13.526;2023-03-19T06:41:37;96038.81;;;6.72;59.75
66479;BME280;53294;47.912;13.526;2023-03-19T06:44:04;96027.88;;;6.74;60.92
66479;BME280;53294;47.912;13.526;2023-03-19T06:46:30;96040.47;;;6.68;62.20
66479;BME280;53294;47.912;13.526;2023-03-19T06:48:57;96040.66;;;6.77;62.39
66479;BME280;53294;47.912;13.526;2023-03-19T06:51:24;96037.56;;;6.54;65.88
66479;BME280;53294;47.912;13.526;2023-03-19T06:53:53;96043.78;;;6.99;62.71
66479;BME280;53294;47.912;13.526;2023-03-19T06:56:20;96042.47;;;6.92;64.78
66479;BME280;53294;47.912;13.526;2023-03-19T06:58:47;96054.28;;;7.30;63.21
66479;BME280;53294;47.912;13.526;2023-03-19T07:01:13;96045.13;;;7.42;63.10
66479;BME280;53294;47.912;13.526;2023-03-19T07:03:40;96052.84;;;7.43;64.44
66479;BME280;53294;47.912;13.526;2023-03-19T07:06:07;96049.97;;;7.34;64.67
66479;BME280;53294;47.912;13.526;2023-03-19T07:08:33;96051.34;;;7.66;63.85
66479;BME280;53294;47.912;13.526;2023-03-19T07:11:05;96051.25;;;7.77;63.16
66479;BME280;53294;47.912;13.526;2023-03-19T07:13:32;96047.53;;;8.07;61.87
66479;BME280;53294;47.912;13.526;2023-03-19T07:15:59;96062.78;;;8.06;63.19
66479;BME280;53294;47.912;13.526;2023-03-19T07:18:26;96060.00;;;8.17;63.61
66479;BME280;53294;47.912;13.526;2023-03-19T07:20:53;96065.72;;;7.76;66.52
66479;BME280;53294;47.912;13.526;2023-03-19T07:23:20;96062.09;;;8.25;64.57
66479;BME280;53294;47.912;13.526;2023-03-19T07:25:46;96066.91;;;7.94;67.06
66479;BME280;53294;47.912;13.526;2023-03-19T07:28:13;96074.31;;;7.67;68.24
66479;BME280;53294;47.912;13.526;2023-03-19T07:30:40;96075.19;;;7.92;66.75
66479;BME280;53294;47.912;13.526;2023-03-19T07:33:06;96075.59;;;8.09;66.59
66479;BME280;53294;47.912;13.526;2023-03-19T07:35:33;96076.84;;;8.52;64.74
66479;BME280;53294;47.912;13.526;2023-03-19T07:38:00;96075.00;;;8.42;66.10
66479;BME280;53294;47.912;13.526;2023-03-19T07:40:28;96077.97;;;8.46;66.22
66479;BME280;53294;47.912;13.526;2023-03-19T07:42:55;96066.06;;;8.81;64.30
66479;BME280;53294;47.912;13.526;2023-03-19T07:45:21;96049.28;;;9.13;63.67
66479;BME280;53294;47.912;13.526;2023-03-19T07:47:49;96072.38;;;8.66;66.69
66479;BME280;53294;47.912;13.526;2023-03-19T07:50:17;96068.56;;;9.15;64.49
66479;BME280;53294;47.912;13.526;2023-03-19T07:52:47;96085.25;;;8.88;66.77
66479;BME280;53294;47.912;13.526;2023-03-19T07:55:14;96076.16;;;9.08;65.67
66479;BME280;53294;47.912;13.526;2023-03-19T07:57:41;96083.09;;;8.90;66.61
66479;BME280;53294;47.912;13.526;2023-03-19T08:00:08;96078.13;;;9.22;66.07
66479;BME280;53294;47.912;13.526;2023-03-19T08:02:36;96078.56;;;9.67;63.85
66479;BME280;53294;47.912;13.526;2023-03-19T08:05:02;96071.94;;;10.11;62.74
66479;BME280;53294;47.912;13.526;2023-03-19T08:07:30;96079.59;;;10.37;61.75
66479;BME280;53294;47.912;13.526;2023-03-19T08:09:57;96083.78;;;10.43;61.75
66479;BME280;53294;47.912;13.526;2023-03-19T08:12:24;96081.31;;;10.60;61.46
66479;BME280;53294;47.912;13.526;2023-03-19T08:14:51;96092.56;;;10.76;61.76
66479;BME280;53294;47.912;13.526;2023-03-19T08:17:18;96089.56;;;11.06;61.12
66479;BME280;53294;47.912;13.526;2023-03-19T08:19:45;96075.72;;;11.26;60.87
66479;BME280;53294;47.912;13.526;2023-03-19T08:22:12;96078.22;;;11.59;60.01
66479;BME280;53294;47.912;13.526;2023-03-19T08:24:39;96083.66;;;11.68;58.82
66479;BME280;53294;47.912;13.526;2023-03-19T08:27:05;96077.69;;;11.57;58.55
66479;BME280;53294;47.912;13.526;2023-03-19T08:29:33;96081.41;;;11.84;55.74
66479;BME280;53294;47.912;13.526;2023-03-19T08:32:00;96080.59;;;12.29;54.92
66479;BME280;53294;47.912;13.526;2023-03-19T08:34:28;96079.66;;;12.56;55.98
66479;BME280;53294;47.912;13.526;2023-03-19T08:36:54;96078.56;;;12.57;57.12
66479;BME280;53294;47.912;13.526;2023-03-19T08:39:21;96077.22;;;12.86;56.05
66479;BME280;53294;47.912;13.526;2023-03-19T08:41:47;96078.19;;;12.99;54.68
66479;BME280;53294;47.912;13.526;2023-03-19T08:44:15;96075.31;;;13.35;52.59
66479;BME280;53294;47.912;13.526;2023-03-19T08:46:41;96089.63;;;13.53;51.44
66479;BME280;53294;47.912;13.526;2023-03-19T08:49:08;96083.75;;;13.60;50.30
66479;BME280;53294;47.912;13.526;2023-03-19T08:51:35;96074.06;;;13.68;48.84
66479;BME280;53294;47.912;13.526;2023-03-19T08:54:02;96076.75;;;13.94;49.08
66479;BME280;53294;47.912;13.526;2023-03-19T08:56:29;96079.59;;;13.89;50.55
66479;BME280;53294;47.912;13.526;2023-03-19T08:58:56;96081.66;;;14.00;47.73
66479;BME280;53294;47.912;13.526;2023-03-19T09:01:22;96070.88;;;13.92;48.55
66479;BME280;53294;47.912;13.526;2023-03-19T09:03:49;96074.06;;;13.94;49.21
66479;BME280;53294;47.912;13.526;2023-03-19T09:06:16;96065.97;;;13.94;48.30
66479;BME280;53294;47.912;13.526;2023-03-19T09:08:43;96072.78;;;13.82;48.17
66479;BME280;53294;47.912;13.526;2023-03-19T09:11:10;96074.69;;;13.73;48.43
66479;BME280;53294;47.912;13.526;2023-03-19T09:13:37;96074.53;;;13.61;49.04
66479;BME280;53294;47.912;13.526;2023-03-19T09:16:04;96078.19;;;13.65;48.89
66479;BME280;53294;47.912;13.526;2023-03-19T09:18:32;96068.81;;;13.71;49.18
66479;BME280;53294;47.912;13.526;2023-03-19T09:20:59;96075.16;;;14.02;48.16
66479;BME280;53294;47.912;13.526;2023-03-19T09:23:26;96076.41;;;14.22;48.54
66479;BME280;53294;47.912;13.526;2023-03-19T09:25:53;96075.53;;;14.56;47.78
66479;BME280;53294;47.912;13.526;2023-03-19T09:28:19;96079.00;;;14.65;48.35
66479;BME280;53294;47.912;13.526;2023-03-19T09:30:47;96080.53;;;14.84;48.43
66479;BME280;53294;47.912;13.526;2023-03-19T09:33:16;96074.09;;;15.27;47.69
66479;BME280;53294;47.912;13.526;2023-03-19T09:35:49;96067.84;;;15.35;46.91
66479;BME280;53294;47.912;13.526;2023-03-19T09:38:16;96073.66;;;15.46;47.40
66479;BME280;53294;47.912;13.526;2023-03-19T09:40:46;96074.72;;;15.75;47.60
66479;BME280;53294;47.912;13.526;2023-03-19T09:46:08;96071.41;;;16.57;43.49
66479;BME280;53294;47.912;13.526;2023-03-19T09:48:51;96070.66;;;16.36;44.35
66479;BME280;53294;47.912;13.526;2023-03-19T09:51:29;96077.81;;;16.07;43.66
66479;BME280;53294;47.912;13.526;2023-03-19T09:56:53;96066.56;;;16.75;43.53
66479;BME280;53294;47.912;13.526;2023-03-19T09:59:25;96074.81;;;16.79;41.96
66479;BME280;53294;47.912;13.526;2023-03-19T10:10:56;96077.59;;;15.78;44.74
66479;BME280;53294;47.912;13.526;2023-03-19T10:16:25;96072.94;;;16.33;43.96
66479;BME280;53294;47.912;13.526;2023-03-19T10:18:55;96060.78;;;16.64;44.03
66479;BME280;53294;47.912;13.526;2023-03-19T10:24:21;96061.53;;;17.11;43.16
66479;BME280;53294;47.912;13.526;2023-03-19T10:26:57;96067.16;;;17.18;42.10
66479;BME280;53294;47.912;13.526;2023-03-19T10:29:24;96065.09;;;17.27;42.80
66479;BME280;53294;47.912;13.526;2023-03-19T10:32:06;96058.31;;;17.33;42.58
66479;BME280;53294;47.912;13.526;2023-03-19T10:34:44;96066.75;;;17.56;42.24
66479;BME280;53294;47.912;13.526;2023-03-19T10:39:43;96069.19;;;17.33;42.10
66479;BME280;53294;47.912;13.526;2023-03-19T10:45:18;96067.59;;;16.83;43.81
66479;BME280;53294;47.912;13.526;2023-03-19T10:47:46;96072.59;;;16.93;43.10
66479;BME280;53294;47.912;13.526;2023-03-19T10:50:18;96076.41;;;16.80;42.71
66479;BME280;53294;47.912;13.526;2023-03-19T10:52:51;96070.25;;;16.46;43.61
66479;BME280;53294;47.912;13.526;2023-03-19T10:55:23;96080.66;;;16.68;43.53
66479;BME280;53294;47.912;13.526;2023-03-19T10:57:56;96074.06;;;17.03;42.40
66479;BME280;53294;47.912;13.526;2023-03-19T11:00:29;96058.91;;;17.02;43.66
66479;BME280;53294;47.912;13.526;2023-03-19T11:03:01;96073.25;;;17.39;42.66
66479;BME280;53294;47.912;13.526;2023-03-19T11:05:32;96062.72;;;17.79;42.42
66479;BME280;53294;47.912;13.526;2023-03-19T11:08:05;96057.19;;;18.16;41.06
66479;BME280;53294;47.912;13.526;2023-03-19T11:10:34;96056.84;;;18.17;40.56
66479;BME280;53294;47.912;13.526;2023-03-19T11:13:14;96049.22;;;18.23;41.21
66479;BME280;53294;47.912;13.526;2023-03-19T11:15:46;96057.31;;;18.07;41.93
66479;BME280;53294;47.912;13.526;2023-03-19T11:18:26;96051.34;;;18.45;40.75
66479;BME280;53294;47.912;13.526;2023-03-19T11:21:23;96048.03;;;19.00;39.81
66479;BME280;53294;47.912;13.526;2023-03-19T11:23:57;96054.03;;;19.06;40.46
66479;BME280;53294;47.912;13.526;2023-03-19T11:26:24;96055.53;;;18.87;38.31
66479;BME280;53294;47.912;13.526;2023-03-19T11:29:01;96055.34;;;18.96;39.21
66479;BME280;53294;47.912;13.526;2023-03-19T11:31:53;96052.59;;;18.64;39.14
66479;BME280;53294;47.912;13.526;2023-03-19T11:35:03;96056.47;;;18.63;38.83
66479;BME280;53294;47.912;13.526;2023-03-19T11:40:42;96063.28;;;18.41;41.04
66479;BME280;53294;47.912;13.526;2023-03-19T11:51:30;96056.06;;;18.17;41.12
66479;BME280;53294;47.912;13.526;2023-03-19T11:57:03;96064.94;;;17.61;40.77
66479;BME280;53294;47.912;13.526;2023-03-19T12:02:35;96068.28;;;17.29;41.97
66479;BME280;53294;47.912;13.526;2023-03-19T12:05:45;96067.16;;;17.05;42.28
66479;BME280;53294;47.912;13.526;2023-03-19T12:22:24;96072.94;;;16.33;42.28
66479;BME280;53294;47.912;13.526;2023-03-19T12:33:48;96087.41;;;15.83;44.09
66479;BME280;53294;47.912;13.526;2023-03-19T12:36:25;96091.25;;;15.82;43.98
66479;BME280;53294;47.912;13.526;2023-03-19T12:39:21;96092.22;;;15.26;43.88
66479;BME280;53294;47.912;13.526;2023-03-19T12:41:47;96092.34;;;15.09;44.50
66479;BME280;53294;47.912;13.526;2023-03-19T12:44:21;96085.63;;;15.15;44.77
66479;BME280;53294;47.912;13.526;2023-03-19T12:46:55;96078.91;;;15.21;45.31
66479;BME280;53294;47.912;13.526;2023-03-19T12:49:30;96072.06;;;15.45;45.01
66479;BME280;53294;47.912;13.526;2023-03-19T12:54:58;96063.03;;;15.83;44.51
66479;BME280;53294;47.912;13.526;2023-03-19T12:57:41;96053.97;;;15.58;44.49
66479;BME280;53294;47.912;13.526;2023-03-19T13:03:12;96057.16;;;15.60;45.63
66479;BME280;53294;47.912;13.526;2023-03-19T13:10:45;96056.63;;;15.67;46.21
66479;BME280;53294;47.912;13.526;2023-03-19T13:16:09;96047.63;;;15.75;46.71
66479;BME280;53294;47.912;13.526;2023-03-19T13:19:09;96046.38;;;15.93;46.73
66479;BME280;53294;47.912;13.526;2023-03-19T13:21:39;96040.50;;;15.70;47.12
66479;BME280;53294;47.912;13.526;2023-03-19T13:26:52;96039.06;;;15.73;46.82
66479;BME280;53294;47.912;13.526;2023-03-19T13:29:25;96042.06;;;15.80;47.10
66479;BME280;53294;47.912;13.526;2023-03-19T13:32:08;96038.53;;;15.79;48.00
66479;BME280;53294;47.912;13.526;2023-03-19T13:34:45;96046.34;;;15.81;47.26
66479;BME280;53294;47.912;13.526;2023-03-19T13:37:19;96042.34;;;16.00;47.22
66479;BME280;53294;47.912;13.526;2023-03-19T13:39:47;96044.22;;;15.87;47.50
66479;BME280;53294;47.912;13.526;2023-03-19T13:42:35;96042.59;;;16.07;46.76
66479;BME280;53294;47.912;13.526;2023-03-19T13:45:30;96038.03;;;15.98;47.43
66479;BME280;53294;47.912;13.526;2023-03-19T13:48:22;96033.84;;;16.22;46.77
66479;BME280;53294;47.912;13.526;2023-03-19T13:51:04;96030.13;;;16.27;46.94
66479;BME280;53294;47.912;13.526;2023-03-19T13:59:32;96046.03;;;16.16;47.31
66479;BME280;53294;47.912;13.526;2023-03-19T14:02:00;96047.66;;;16.42;46.86
66479;BME280;53294;47.912;13.526;2023-03-19T14:09:46;96039.94;;;16.19;46.73
66479;BME280;53294;47.912;13.526;2023-03-19T14:14:44;96030.13;;;16.27;47.14
66479;BME280;53294;47.912;13.526;2023-03-19T14:17:36;96021.00;;;16.31;47.08
66479;BME280;53294;47.912;13.526;2023-03-19T14:28:37;96021.56;;;16.49;47.00
66479;BME280;53294;47.912;13.526;2023-03-19T14:31:22;96018.19;;;16.52;46.54
66479;BME280;53294;47.912;13.526;2023-03-19T14:34:21;96018.53;;;16.63;46.48
66479;BME280;53294;47.912;13.526;2023-03-19T14:39:30;96015.59;;;16.68;46.50
66479;BME280;53294;47.912;13.526;2023-03-19T14:42:30;96009.97;;;16.98;45.96
66479;BME280;53294;47.912;13.526;2023-03-19T14:53:03;96010.88;;;16.90;46.75
66479;BME280;53294;47.912;13.526;2023-03-19T14:55:37;96013.69;;;16.81;46.08
66479;BME280;53294;47.912;13.526;2023-03-19T14:58:04;96014.91;;;16.84;46.39
66479;BME280;53294;47.912;13.526;2023-03-19T15:01:00;96019.47;;;17.04;46.02
66479;BME280;53294;47.912;13.526;2023-03-19T15:03:33;96005.91;;;17.17;45.89
66479;BME280;53294;47.912;13.526;2023-03-19T15:06:05;96009.97;;;16.98;46.19